Time,TemperatureF,DewpointF,PressureIn,WindDirection,WindDirectionDegrees,WindSpeedMPH,WindSpeedGustMPH,Humidity,HourlyPrecipIn,Conditions,Clouds,dailyrainin,SoftwareType,DateUTC
2013-04-19 00:00:00,77.0,71.4,29.71,SW,225,0.0,0.0,79,0.00,,,0.00,fowsr,2013-04-19 04:00:00,
2013-04-19 00:05:00,77.0,71.4,29.71,West,270,0.0,0.0,79,0.00,,,0.00,fowsr,2013-04-19 04:05:00,
2013-04-19 00:10:00,77.0,71.7,29.71,SW,225,0.0,0.0,80,0.00,,,0.00,fowsr,2013-04-19 04:10:00,
2013-04-19 00:15:00,77.0,71.7,29.71,SW,225,0.0,0.0,80,0.00,,,0.00,fowsr,2013-04-19 04:15:00,
2013-04-19 00:20:00,77.0,71.7,29.71,SW,225,0.0,0.0,80,0.00,,,0.00,fowsr,2013-04-19 04:20:00,
2013-04-19 00:25:00,76.8,71.8,29.71,SW,225,0.0,0.7,81,0.00,,,0.00,fowsr,2013-04-19 04:25:00,
2013-04-19 00:30:00,76.8,71.8,29.70,SW,225,0.0,0.0,81,0.00,,,0.00,fowsr,2013-04-19 04:30:00,
2013-04-19 00:35:00,76.6,71.6,29.70,SW,225,0.0,0.0,81,0.00,,,0.00,fowsr,2013-04-19 04:35:00,
2013-04-19 00:40:00,76.6,71.6,29.71,SW,225,0.0,0.0,81,0.00,,,0.00,fowsr,2013-04-19 04:40:00,
2013-04-19 00:45:00,76.5,71.8,29.71,SW,225,0.0,0.0,82,0.00,,,0.00,fowsr,2013-04-19 04:45:00,
2013-04-19 00:50:00,76.5,71.8,29.71,SW,225,0.0,0.0,82,0.00,,,0.00,fowsr,2013-04-19 04:50:00,
2013-04-19 00:55:00,76.5,71.8,29.71,SW,225,0.0,0.0,82,0.00,,,0.00,fowsr,2013-04-19 04:55:00,
2013-04-19 01:00:00,76.3,71.6,29.71,SW,225,0.0,0.0,82,0.00,,,0.00,fowsr,2013-04-19 05:00:00,
2013-04-19 01:05:00,76.5,71.8,29.71,SW,225,0.0,0.0,82,0.00,,,0.00,fowsr,2013-04-19 05:05:00,
2013-04-19 01:10:00,76.5,71.8,29.71,SW,225,0.0,0.0,82,0.00,,,0.00,fowsr,2013-04-19 05:10:00,
2013-04-19 01:15:00,76.5,71.8,29.71,SW,225,0.0,0.0,82,0.00,,,0.00,fowsr,2013-04-19 05:15:00,
2013-04-19 01:20:00,76.5,71.8,29.71,SW,225,0.0,0.0,82,0.00,,,0.00,fowsr,2013-04-19 05:20:00,
2013-04-19 01:25:00,76.5,72.0,29.71,SW,225,0.0,0.0,83,0.00,,,0.00,fowsr,2013-04-19 05:25:00,
2013-04-19 01:30:00,76.3,71.9,29.71,SW,225,0.0,0.0,83,0.00,,,0.00,fowsr,2013-04-19 05:30:00,
2013-04-19 01:35:00,76.3,71.9,29.70,SW,225,0.0,0.0,83,0.00,,,0.00,fowsr,2013-04-19 05:35:00,
2013-04-19 01:40:00,76.3,71.9,29.70,SW,225,0.0,0.0,83,0.00,,,0.00,fowsr,2013-04-19 05:40:00,
2013-04-19 01:45:00,76.3,72.1,29.69,SW,225,0.0,0.0,84,0.00,,,0.00,fowsr,2013-04-19 05:45:00,
2013-04-19 01:50:00,76.3,72.1,29.70,SW,225,0.0,0.0,84,0.00,,,0.00,fowsr,2013-04-19 05:50:00,
2013-04-19 01:55:00,76.3,72.1,29.70,SW,225,0.0,0.0,84,0.00,,,0.00,fowsr,2013-04-19 05:55:00,
2013-04-19 02:00:00,76.3,72.1,29.70,SW,225,0.0,0.0,84,0.00,,,0.00,fowsr,2013-04-19 06:00:00,
2013-04-19 02:05:00,76.3,72.1,29.70,SW,225,0.0,0.0,84,0.00,,,0.00,fowsr,2013-04-19 06:05:00,
2013-04-19 02:10:00,76.3,72.1,29.70,SW,225,0.0,0.0,84,0.00,,,0.00,fowsr,2013-04-19 06:10:00,
2013-04-19 02:15:00,76.3,72.1,29.70,SW,225,0.0,0.0,84,0.00,,,0.00,fowsr,2013-04-19 06:15:00,
2013-04-19 02:20:00,76.3,72.1,29.69,SW,225,0.0,0.0,84,0.00,,,0.00,fowsr,2013-04-19 06:20:00,
2013-04-19 02:25:00,76.3,72.4,29.69,SW,225,0.0,0.0,85,0.00,,,0.00,fowsr,2013-04-19 06:25:00,
2013-04-19 02:30:00,76.3,72.4,29.69,SW,225,0.0,0.0,85,0.00,,,0.00,fowsr,2013-04-19 06:30:00,
2013-04-19 02:35:00,76.3,72.4,29.69,SW,225,0.0,0.0,85,0.00,,,0.00,fowsr,2013-04-19 06:35:00,
2013-04-19 02:40:00,76.3,72.4,29.69,SW,225,0.0,0.0,85,0.00,,,0.00,fowsr,2013-04-19 06:40:00,
2013-04-19 02:45:00,76.3,72.4,29.69,SW,225,0.0,0.0,85,0.00,,,0.00,fowsr,2013-04-19 06:45:00,
2013-04-19 02:50:00,76.3,72.4,29.69,SW,225,0.0,0.0,85,0.00,,,0.00,fowsr,2013-04-19 06:50:00,
2013-04-19 02:55:00,76.3,72.4,29.69,SW,225,0.0,0.0,85,0.00,,,0.00,fowsr,2013-04-19 06:55:00,
2013-04-19 03:00:00,76.3,72.4,29.69,SW,225,0.0,0.0,85,0.00,,,0.00,fowsr,2013-04-19 07:00:00,
2013-04-19 03:05:00,75.9,72.1,29.69,SW,225,0.0,0.0,85,0.00,,,0.00,fowsr,2013-04-19 07:05:00,
2013-04-19 03:10:00,75.9,72.1,29.68,SW,225,0.0,0.0,85,0.00,,,0.00,fowsr,2013-04-19 07:10:00,
2013-04-19 03:15:00,75.9,72.1,29.68,SW,225,0.0,0.0,85,0.00,,,0.00,fowsr,2013-04-19 07:15:00,
2013-04-19 03:20:00,75.9,72.1,29.68,SW,225,0.0,0.0,85,0.00,,,0.00,fowsr,2013-04-19 07:20:00,
2013-04-19 03:25:00,75.9,72.1,29.68,SW,225,0.0,0.0,85,0.00,,,0.00,fowsr,2013-04-19 07:25:00,
2013-04-19 03:30:00,75.9,72.1,29.67,SW,225,0.0,0.0,85,0.00,,,0.00,fowsr,2013-04-19 07:30:00,
2013-04-19 03:35:00,75.9,72.1,29.68,SW,225,0.0,0.0,85,0.00,,,0.00,fowsr,2013-04-19 07:35:00,
2013-04-19 03:40:00,75.7,71.9,29.67,SW,225,0.0,0.0,85,0.00,,,0.00,fowsr,2013-04-19 07:40:00,
2013-04-19 03:45:00,75.7,72.2,29.68,SW,225,0.0,0.0,86,0.00,,,0.00,fowsr,2013-04-19 07:45:00,
2013-04-19 03:50:00,75.7,72.2,29.68,SW,225,0.0,0.0,86,0.00,,,0.00,fowsr,2013-04-19 07:50:00,
2013-04-19 03:55:00,75.7,72.2,29.68,SW,225,0.0,0.0,86,0.00,,,0.00,fowsr,2013-04-19 07:55:00,
2013-04-19 04:00:00,75.6,72.0,29.67,SW,225,0.0,0.0,86,0.00,,,0.00,fowsr,2013-04-19 08:00:00,
2013-04-19 04:05:00,75.6,72.0,29.67,SW,225,0.0,0.0,86,0.00,,,0.00,fowsr,2013-04-19 08:05:00,
2013-04-19 04:10:00,75.4,71.8,29.68,SW,225,0.0,0.0,86,0.00,,,0.00,fowsr,2013-04-19 08:10:00,
2013-04-19 04:15:00,75.4,71.8,29.68,SW,225,0.0,0.0,86,0.00,,,0.00,fowsr,2013-04-19 08:15:00,
2013-04-19 04:20:00,75.4,71.8,29.68,SW,225,0.0,0.0,86,0.00,,,0.00,fowsr,2013-04-19 08:20:00,
2013-04-19 04:25:00,75.2,71.6,29.68,SW,225,0.0,0.0,86,0.00,,,0.00,fowsr,2013-04-19 08:25:00,
2013-04-19 04:30:00,75.0,71.7,29.68,SW,225,0.0,0.0,87,0.00,,,0.00,fowsr,2013-04-19 08:30:00,
2013-04-19 04:35:00,75.0,72.0,29.68,SW,225,0.0,0.0,88,0.00,,,0.00,fowsr,2013-04-19 08:35:00,
2013-04-19 04:40:00,75.0,72.0,29.68,SW,225,0.0,0.0,88,0.00,,,0.00,fowsr,2013-04-19 08:40:00,
2013-04-19 04:45:00,74.8,71.8,29.68,SW,225,0.0,0.0,88,0.00,,,0.00,fowsr,2013-04-19 08:45:00,
2013-04-19 04:50:00,74.8,71.8,29.67,SW,225,0.0,0.0,88,0.00,,,0.00,fowsr,2013-04-19 08:50:00,
2013-04-19 04:55:00,74.8,71.8,29.67,SW,225,0.0,0.0,88,0.00,,,0.00,fowsr,2013-04-19 08:55:00,
2013-04-19 05:00:00,74.7,71.7,29.67,SW,225,0.0,0.0,88,0.00,,,0.00,fowsr,2013-04-19 09:00:00,
2013-04-19 05:05:00,74.7,71.7,29.67,SW,225,0.0,0.0,88,0.00,,,0.00,fowsr,2013-04-19 09:05:00,
2013-04-19 05:10:00,74.5,71.5,29.67,SW,225,0.0,0.0,88,0.00,,,0.00,fowsr,2013-04-19 09:10:00,
2013-04-19 05:15:00,74.5,71.5,29.67,SW,225,0.0,0.0,88,0.00,,,0.00,fowsr,2013-04-19 09:15:00,
2013-04-19 05:20:00,74.3,71.3,29.67,SW,225,0.0,0.0,88,0.00,,,0.00,fowsr,2013-04-19 09:20:00,
2013-04-19 05:25:00,74.1,71.4,29.67,SW,225,0.0,0.0,89,0.00,,,0.00,fowsr,2013-04-19 09:25:00,
2013-04-19 05:30:00,74.1,71.4,29.67,SW,225,0.0,0.0,89,0.00,,,0.00,fowsr,2013-04-19 09:30:00,
2013-04-19 05:35:00,73.9,71.2,29.67,SW,225,0.0,0.0,89,0.00,,,0.00,fowsr,2013-04-19 09:35:00,
2013-04-19 05:40:00,73.8,71.0,29.67,SW,225,0.0,0.0,89,0.00,,,0.00,fowsr,2013-04-19 09:40:00,
2013-04-19 05:45:00,73.8,71.0,29.67,SW,225,0.0,0.0,89,0.00,,,0.00,fowsr,2013-04-19 09:45:00,
2013-04-19 05:50:00,73.8,71.0,29.67,SW,225,0.0,0.0,89,0.00,,,0.00,fowsr,2013-04-19 09:50:00,
2013-04-19 05:55:00,73.6,70.9,29.67,SW,225,0.0,0.0,89,0.00,,,0.00,fowsr,2013-04-19 09:55:00,
2013-04-19 06:00:00,73.6,70.9,29.67,SW,225,0.0,0.0,89,0.00,,,0.00,fowsr,2013-04-19 10:00:00,
2013-04-19 06:05:00,73.6,70.9,29.67,SW,225,0.0,0.0,89,0.00,,,0.00,fowsr,2013-04-19 10:05:00,
2013-04-19 06:10:00,73.4,70.9,29.67,SW,225,0.0,0.0,90,0.00,,,0.00,fowsr,2013-04-19 10:10:00,
2013-04-19 06:15:00,73.4,70.9,29.67,SW,225,0.0,0.0,90,0.00,,,0.00,fowsr,2013-04-19 10:15:00,
2013-04-19 06:20:00,73.4,70.9,29.67,SW,225,0.0,0.0,90,0.00,,,0.00,fowsr,2013-04-19 10:20:00,
2013-04-19 06:25:00,73.2,70.5,29.67,SW,225,0.0,0.0,89,0.00,,,0.00,fowsr,2013-04-19 10:25:00,
2013-04-19 06:30:00,73.2,70.5,29.67,SW,225,0.0,0.0,89,0.00,,,0.00,fowsr,2013-04-19 10:30:00,
2013-04-19 06:35:00,73.2,70.5,29.68,SW,225,0.0,0.0,89,0.00,,,0.00,fowsr,2013-04-19 10:35:00,
2013-04-19 06:40:00,73.2,70.8,29.68,SW,225,0.0,0.0,90,0.00,,,0.00,fowsr,2013-04-19 10:40:00,
2013-04-19 06:45:00,73.0,70.6,29.68,SW,225,0.0,0.0,90,0.00,,,0.00,fowsr,2013-04-19 10:45:00,
2013-04-19 06:50:00,73.0,70.6,29.69,SW,225,0.0,0.0,90,0.00,,,0.00,fowsr,2013-04-19 10:50:00,
2013-04-19 06:55:00,73.0,70.6,29.69,SW,225,0.0,0.0,90,0.00,,,0.00,fowsr,2013-04-19 10:55:00,
2013-04-19 07:00:00,73.0,70.6,29.69,SW,225,0.0,0.0,90,0.00,,,0.00,fowsr,2013-04-19 11:00:00,
2013-04-19 07:05:00,73.0,70.6,29.69,SW,225,0.0,0.0,90,0.00,,,0.00,fowsr,2013-04-19 11:05:00,
2013-04-19 07:10:00,72.9,70.4,29.69,SW,225,0.0,0.0,90,0.00,,,0.00,fowsr,2013-04-19 11:10:00,
2013-04-19 07:15:00,72.9,70.7,29.69,SW,225,0.0,0.0,91,0.00,,,0.00,fowsr,2013-04-19 11:15:00,
2013-04-19 07:20:00,72.9,70.7,29.70,SW,225,0.0,0.0,91,0.00,,,0.00,fowsr,2013-04-19 11:20:00,
2013-04-19 07:25:00,72.9,70.7,29.70,SW,225,0.0,0.0,91,0.00,,,0.00,fowsr,2013-04-19 11:25:00,
2013-04-19 07:30:00,73.0,70.8,29.70,SW,225,0.0,0.0,91,0.00,,,0.00,fowsr,2013-04-19 11:30:00,
2013-04-19 07:35:00,73.4,71.4,29.70,SW,225,0.0,0.0,92,0.00,,,0.00,fowsr,2013-04-19 11:35:00,
2013-04-19 07:40:00,73.9,72.0,29.71,SW,225,0.0,0.0,92,0.00,,,0.00,fowsr,2013-04-19 11:40:00,
2013-04-19 07:45:00,74.5,72.3,29.71,SW,225,0.0,0.0,91,0.00,,,0.00,fowsr,2013-04-19 11:45:00,
2013-04-19 07:50:00,75.2,72.7,29.71,SW,225,0.0,0.0,90,0.00,,,0.00,fowsr,2013-04-19 11:50:00,
2013-04-19 07:55:00,76.3,73.2,29.71,SW,225,0.0,0.0,88,0.00,,,0.00,fowsr,2013-04-19 11:55:00,
2013-04-19 08:00:00,77.0,73.7,29.71,SW,225,0.0,0.0,87,0.00,,,0.00,fowsr,2013-04-19 12:00:00,
2013-04-19 08:05:00,78.3,74.4,29.71,SW,225,0.0,0.0,85,0.00,,,0.00,fowsr,2013-04-19 12:05:00,
2013-04-19 08:10:00,79.2,74.7,29.71,SW,225,0.0,0.0,83,0.00,,,0.00,fowsr,2013-04-19 12:10:00,
2013-04-19 08:15:00,80.1,75.3,29.72,SW,225,0.0,0.0,82,0.00,,,0.00,fowsr,2013-04-19 12:15:00,
2013-04-19 08:20:00,81.0,75.2,29.71,SW,225,0.0,0.0,79,0.00,,,0.00,fowsr,2013-04-19 12:20:00,
2013-04-19 08:25:00,81.7,75.6,29.72,SW,225,0.0,0.0,78,0.00,,,0.00,fowsr,2013-04-19 12:25:00,
2013-04-19 08:30:00,82.2,75.5,29.72,SW,225,0.0,0.0,76,0.00,,,0.00,fowsr,2013-04-19 12:30:00,
2013-04-19 08:35:00,82.9,75.9,29.72,SW,225,0.0,0.7,75,0.00,,,0.00,fowsr,2013-04-19 12:35:00,
2013-04-19 08:40:00,83.5,76.4,29.71,West,270,0.0,0.7,75,0.00,,,0.00,fowsr,2013-04-19 12:40:00,
2013-04-19 08:45:00,83.7,76.3,29.71,SW,225,0.0,0.0,74,0.00,,,0.00,fowsr,2013-04-19 12:45:00,
2013-04-19 08:50:00,84.4,76.6,29.72,SW,225,0.0,0.0,73,0.00,,,0.00,fowsr,2013-04-19 12:50:00,
2013-04-19 08:55:00,84.7,76.3,29.71,West,270,0.0,0.0,71,0.00,,,0.00,fowsr,2013-04-19 12:55:00,
2013-04-19 09:00:00,85.3,76.5,29.71,SW,225,0.0,0.0,70,0.00,,,0.00,fowsr,2013-04-19 13:00:00,
2013-04-19 09:05:00,85.6,76.5,29.72,SW,225,0.0,0.0,69,0.00,,,0.00,fowsr,2013-04-19 13:05:00,
2013-04-19 09:10:00,85.6,76.1,29.71,SW,225,0.0,0.0,68,0.00,,,0.00,fowsr,2013-04-19 13:10:00,
2013-04-19 09:15:00,86.2,76.3,29.72,SW,225,0.0,0.0,67,0.00,,,0.00,fowsr,2013-04-19 13:15:00,
2013-04-19 09:20:00,86.2,76.3,29.72,SW,225,0.0,0.7,67,0.00,,,0.00,fowsr,2013-04-19 13:20:00,
2013-04-19 09:25:00,86.0,76.1,29.72,SW,225,0.0,0.0,67,0.00,,,0.00,fowsr,2013-04-19 13:25:00,
2013-04-19 09:30:00,85.6,76.1,29.72,SW,225,0.0,0.0,68,0.00,,,0.00,fowsr,2013-04-19 13:30:00,
2013-04-19 09:35:00,85.3,76.1,29.72,SW,225,0.0,0.0,69,0.00,,,0.00,fowsr,2013-04-19 13:35:00,
2013-04-19 09:40:00,85.3,76.1,29.71,SW,225,0.0,0.0,69,0.00,,,0.00,fowsr,2013-04-19 13:40:00,
2013-04-19 09:45:00,85.5,76.3,29.71,SW,225,0.0,0.0,69,0.00,,,0.00,fowsr,2013-04-19 13:45:00,
2013-04-19 09:50:00,85.8,76.6,29.71,SW,225,0.0,0.0,69,0.00,,,0.00,fowsr,2013-04-19 13:50:00,
2013-04-19 09:55:00,86.4,76.4,29.71,SW,225,0.0,0.7,67,0.00,,,0.00,fowsr,2013-04-19 13:55:00,
2013-04-19 10:00:00,86.5,75.9,29.71,SW,225,0.0,0.0,65,0.00,,,0.00,fowsr,2013-04-19 14:00:00,
2013-04-19 10:05:00,86.0,75.7,29.71,West,270,0.0,0.7,66,0.00,,,0.00,fowsr,2013-04-19 14:05:00,
2013-04-19 10:10:00,86.2,75.9,29.72,SW,225,0.0,0.7,66,0.00,,,0.00,fowsr,2013-04-19 14:10:00,
2013-04-19 10:15:00,86.0,75.4,29.72,West,270,0.0,0.7,65,0.00,,,0.00,fowsr,2013-04-19 14:15:00,
2013-04-19 10:20:00,86.0,75.7,29.72,SW,225,0.0,0.0,66,0.00,,,0.00,fowsr,2013-04-19 14:20:00,
2013-04-19 10:25:00,86.4,75.7,29.72,SW,225,0.0,0.7,65,0.00,,,0.00,fowsr,2013-04-19 14:25:00,
2013-04-19 10:30:00,87.1,76.0,29.72,SW,225,0.0,0.0,64,0.00,,,0.00,fowsr,2013-04-19 14:30:00,
2013-04-19 10:35:00,87.8,76.3,29.72,SW,225,0.0,0.7,63,0.00,,,0.00,fowsr,2013-04-19 14:35:00,
2013-04-19 10:40:00,88.5,76.6,29.72,SW,225,0.0,0.0,62,0.00,,,0.00,fowsr,2013-04-19 14:40:00,
2013-04-19 10:45:00,88.9,76.5,29.72,SW,225,0.0,0.0,61,0.00,,,0.00,fowsr,2013-04-19 14:45:00,
2013-04-19 10:50:00,89.1,76.7,29.72,SW,225,0.0,0.7,61,0.00,,,0.00,fowsr,2013-04-19 14:50:00,
2013-04-19 10:55:00,89.6,76.4,29.72,SW,225,0.0,0.0,59,0.00,,,0.00,fowsr,2013-04-19 14:55:00,
2013-04-19 11:00:00,90.0,76.7,29.72,SW,225,0.0,0.0,59,0.00,,,0.00,fowsr,2013-04-19 15:00:00,
2013-04-19 11:05:00,90.3,76.6,29.72,SW,225,0.0,0.0,58,0.00,,,0.00,fowsr,2013-04-19 15:05:00,
2013-04-19 11:10:00,90.3,76.2,29.71,SW,225,0.0,0.7,57,0.00,,,0.00,fowsr,2013-04-19 15:10:00,
2013-04-19 11:15:00,90.5,76.4,29.72,SW,225,0.0,0.7,57,0.00,,,0.00,fowsr,2013-04-19 15:15:00,
2013-04-19 11:20:00,90.5,76.0,29.72,SW,225,0.0,0.0,56,0.00,,,0.00,fowsr,2013-04-19 15:20:00,
2013-04-19 11:25:00,90.5,76.0,29.72,SW,225,0.0,0.0,56,0.00,,,0.00,fowsr,2013-04-19 15:25:00,
2013-04-19 11:30:00,90.3,75.8,29.72,SW,225,0.0,0.0,56,0.00,,,0.00,fowsr,2013-04-19 15:30:00,
2013-04-19 11:35:00,90.3,75.8,29.71,SW,225,0.0,0.0,56,0.00,,,0.00,fowsr,2013-04-19 15:35:00,
2013-04-19 11:40:00,90.3,75.4,29.71,SW,225,0.0,0.0,55,0.00,,,0.00,fowsr,2013-04-19 15:40:00,
2013-04-19 11:45:00,90.3,75.4,29.71,SW,225,0.0,0.0,55,0.00,,,0.00,fowsr,2013-04-19 15:45:00,
2013-04-19 11:50:00,90.3,75.4,29.71,SW,225,0.0,0.0,55,0.00,,,0.00,fowsr,2013-04-19 15:50:00,
2013-04-19 11:55:00,90.5,75.1,29.70,SW,225,0.0,0.0,54,0.00,,,0.00,fowsr,2013-04-19 15:55:00,
2013-04-19 12:00:00,91.0,75.1,29.70,SW,225,0.0,0.0,53,0.00,,,0.00,fowsr,2013-04-19 16:00:00,
2013-04-19 12:05:00,91.0,74.7,29.70,SW,225,0.0,0.0,52,0.00,,,0.00,fowsr,2013-04-19 16:05:00,
2013-04-19 12:10:00,90.9,74.5,29.70,SW,225,0.0,0.0,52,0.00,,,0.00,fowsr,2013-04-19 16:10:00,
2013-04-19 12:15:00,91.4,74.5,29.69,SW,225,0.0,0.0,51,0.00,,,0.00,fowsr,2013-04-19 16:15:00,
2013-04-19 12:20:00,92.1,75.2,29.70,SW,225,0.0,0.0,51,0.00,,,0.00,fowsr,2013-04-19 16:20:00,
2013-04-19 12:25:00,93.0,75.5,29.69,SW,225,0.0,0.7,50,0.00,,,0.00,fowsr,2013-04-19 16:25:00,
2013-04-19 12:30:00,93.2,75.2,29.69,SW,225,0.0,0.0,49,0.00,,,0.00,fowsr,2013-04-19 16:30:00,
2013-04-19 12:35:00,93.6,75.0,29.69,SW,225,0.0,0.0,48,0.00,,,0.00,fowsr,2013-04-19 16:35:00,
2013-04-19 12:40:00,93.9,75.4,29.69,SW,225,0.0,0.0,48,0.00,,,0.00,fowsr,2013-04-19 16:40:00,
2013-04-19 12:45:00,93.9,75.4,29.69,SW,225,0.0,0.7,48,0.00,,,0.00,fowsr,2013-04-19 16:45:00,
2013-04-19 12:50:00,93.7,75.2,29.69,SW,225,0.0,0.0,48,0.00,,,0.00,fowsr,2013-04-19 16:50:00,
2013-04-19 12:55:00,93.6,74.5,29.69,SW,225,0.0,0.0,47,0.00,,,0.00,fowsr,2013-04-19 16:55:00,
2013-04-19 13:00:00,93.7,75.2,29.68,SW,225,0.0,0.0,48,0.00,,,0.00,fowsr,2013-04-19 17:00:00,
2013-04-19 13:05:00,94.3,75.7,29.69,South,180,0.0,0.0,48,0.00,,,0.00,fowsr,2013-04-19 17:05:00,
2013-04-19 13:10:00,94.8,75.7,29.68,SW,225,0.0,0.0,47,0.00,,,0.00,fowsr,2013-04-19 17:10:00,
2013-04-19 13:15:00,95.0,74.8,29.68,SW,225,0.0,0.0,45,0.00,,,0.00,fowsr,2013-04-19 17:15:00,
2013-04-19 13:20:00,94.5,74.8,29.68,SW,225,0.0,0.0,46,0.00,,,0.00,fowsr,2013-04-19 17:20:00,
2013-04-19 13:25:00,94.1,74.5,29.68,SW,225,0.0,0.0,46,0.00,,,0.00,fowsr,2013-04-19 17:25:00,
2013-04-19 13:30:00,93.4,73.9,29.68,SW,225,0.0,0.0,46,0.00,,,0.00,fowsr,2013-04-19 17:30:00,
2013-04-19 13:35:00,92.7,73.7,29.68,SW,225,0.0,0.0,47,0.00,,,0.00,fowsr,2013-04-19 17:35:00,
2013-04-19 13:40:00,92.5,74.1,29.67,SW,225,0.0,0.0,48,0.00,,,0.00,fowsr,2013-04-19 17:40:00,
2013-04-19 13:45:00,92.8,73.9,29.67,SW,225,0.0,0.0,47,0.00,,,0.00,fowsr,2013-04-19 17:45:00,
2013-04-19 13:50:00,92.7,73.7,29.67,SW,225,0.0,0.0,47,0.00,,,0.00,fowsr,2013-04-19 17:50:00,
2013-04-19 13:55:00,91.8,73.4,29.67,SW,225,0.0,0.0,48,0.00,,,0.00,fowsr,2013-04-19 17:55:00,
2013-04-19 14:00:00,91.4,73.6,29.67,SW,225,0.0,0.0,49,0.00,,,0.00,fowsr,2013-04-19 18:00:00,
2013-04-19 14:05:00,91.8,73.9,29.66,SW,225,0.0,0.0,49,0.00,,,0.00,fowsr,2013-04-19 18:05:00,
2013-04-19 14:10:00,91.9,74.1,29.66,SW,225,0.0,0.0,49,0.00,,,0.00,fowsr,2013-04-19 18:10:00,
2013-04-19 14:15:00,92.5,74.1,29.66,SW,225,0.0,0.0,48,0.00,,,0.00,fowsr,2013-04-19 18:15:00,
2013-04-19 14:20:00,92.5,74.6,29.66,SW,225,0.0,0.0,49,0.00,,,0.00,fowsr,2013-04-19 18:20:00,
2013-04-19 14:25:00,92.8,74.4,29.65,SW,225,0.0,0.0,48,0.00,,,0.00,fowsr,2013-04-19 18:25:00,
2013-04-19 14:30:00,93.2,74.2,29.65,SW,225,0.0,0.0,47,0.00,,,0.00,fowsr,2013-04-19 18:30:00,
2013-04-19 14:35:00,93.0,74.1,29.65,SW,225,0.0,0.0,47,0.00,,,0.00,fowsr,2013-04-19 18:35:00,
2013-04-19 14:40:00,92.7,74.2,29.65,SW,225,0.0,0.0,48,0.00,,,0.00,fowsr,2013-04-19 18:40:00,
2013-04-19 14:45:00,92.3,73.9,29.64,SW,225,0.0,0.0,48,0.00,,,0.00,fowsr,2013-04-19 18:45:00,
2013-04-19 14:50:00,91.9,73.6,29.64,SW,225,0.0,0.0,48,0.00,,,0.00,fowsr,2013-04-19 18:50:00,
2013-04-19 14:55:00,91.8,73.4,29.64,SW,225,0.0,0.0,48,0.00,,,0.00,fowsr,2013-04-19 18:55:00,
2013-04-19 15:00:00,92.3,74.4,29.63,SW,225,0.0,0.0,49,0.00,,,0.00,fowsr,2013-04-19 19:00:00,
2013-04-19 15:05:00,93.0,74.6,29.63,SW,225,0.0,0.0,48,0.00,,,0.00,fowsr,2013-04-19 19:05:00,
2013-04-19 15:10:00,93.2,73.7,29.62,SW,225,0.0,0.0,46,0.00,,,0.00,fowsr,2013-04-19 19:10:00,
2013-04-19 15:15:00,92.5,73.6,29.62,SW,225,0.0,0.0,47,0.00,,,0.00,fowsr,2013-04-19 19:15:00,
2013-04-19 15:20:00,92.1,73.3,29.61,SW,225,0.0,0.0,47,0.00,,,0.00,fowsr,2013-04-19 19:20:00,
2013-04-19 15:25:00,91.9,73.1,29.62,SW,225,0.0,0.0,47,0.00,,,0.00,fowsr,2013-04-19 19:25:00,
2013-04-19 15:30:00,91.6,73.3,29.62,SW,225,0.0,0.0,48,0.00,,,0.00,fowsr,2013-04-19 19:30:00,
2013-04-19 15:35:00,91.4,73.1,29.61,SW,225,0.0,0.0,48,0.00,,,0.00,fowsr,2013-04-19 19:35:00,
2013-04-19 15:40:00,91.4,73.1,29.61,SW,225,0.0,0.0,48,0.00,,,0.00,fowsr,2013-04-19 19:40:00,
2013-04-19 15:45:00,91.2,72.5,29.61,SW,225,0.0,0.0,47,0.00,,,0.00,fowsr,2013-04-19 19:45:00,
2013-04-19 15:50:00,91.0,72.3,29.61,SW,225,0.0,0.7,47,0.00,,,0.00,fowsr,2013-04-19 19:50:00,
2013-04-19 15:55:00,90.5,71.8,29.60,SW,225,0.0,0.0,47,0.00,,,0.00,fowsr,2013-04-19 19:55:00,
2013-04-19 16:00:00,90.0,71.3,29.60,SW,225,0.0,0.0,47,0.00,,,0.00,fowsr,2013-04-19 20:00:00,
2013-04-19 16:05:00,90.0,71.8,29.60,SW,225,0.0,0.0,48,0.00,,,0.00,fowsr,2013-04-19 20:05:00,
2013-04-19 16:10:00,90.0,71.8,29.60,SW,225,0.0,0.0,48,0.00,,,0.00,fowsr,2013-04-19 20:10:00,
2013-04-19 16:15:00,90.0,72.3,29.59,SW,225,0.0,0.0,49,0.00,,,0.00,fowsr,2013-04-19 20:15:00,
2013-04-19 16:20:00,90.5,72.8,29.60,SW,225,0.0,0.0,49,0.00,,,0.00,fowsr,2013-04-19 20:20:00,
2013-04-19 16:25:00,90.5,72.3,29.60,SW,225,0.0,0.0,48,0.00,,,0.00,fowsr,2013-04-19 20:25:00,
2013-04-19 16:30:00,90.0,71.8,29.61,SW,225,0.0,0.7,48,0.00,,,0.00,fowsr,2013-04-19 20:30:00,
2013-04-19 16:35:00,89.4,73.7,29.61,SW,225,0.0,0.0,53,0.00,,,0.00,fowsr,2013-04-19 20:35:00,
2013-04-19 16:40:00,88.7,74.7,29.61,SW,225,0.0,0.0,57,0.00,,,0.00,fowsr,2013-04-19 20:40:00,
2013-04-19 16:45:00,88.0,75.3,29.61,SW,225,0.0,0.0,60,0.00,,,0.00,fowsr,2013-04-19 20:45:00,
2013-04-19 16:50:00,87.1,75.6,29.62,SW,225,0.0,0.0,63,0.00,,,0.00,fowsr,2013-04-19 20:50:00,
2013-04-19 16:55:00,86.0,74.6,29.60,SW,225,0.0,0.0,63,0.00,,,0.00,fowsr,2013-04-19 20:55:00,
2013-04-19 17:00:00,84.9,74.0,29.61,SW,225,0.0,0.0,64,0.00,,,0.00,fowsr,2013-04-19 21:00:00,
2013-04-19 17:05:00,84.4,74.2,29.61,SW,225,0.0,0.0,66,0.00,,,0.00,fowsr,2013-04-19 21:05:00,
2013-04-19 17:10:00,84.0,74.6,29.61,SW,225,0.0,0.0,68,0.00,,,0.00,fowsr,2013-04-19 21:10:00,
2013-04-19 17:15:00,83.3,74.2,29.61,SW,225,0.0,0.0,69,0.00,,,0.00,fowsr,2013-04-19 21:15:00,
2013-04-19 17:20:00,82.9,74.2,29.61,SW,225,0.0,0.0,70,0.00,,,0.00,fowsr,2013-04-19 21:20:00,
2013-04-19 17:25:00,82.4,74.1,29.61,SW,225,0.0,0.0,71,0.00,,,0.00,fowsr,2013-04-19 21:25:00,
2013-04-19 17:30:00,82.4,74.4,29.60,SW,225,0.0,0.0,72,0.00,,,0.00,fowsr,2013-04-19 21:30:00,
2013-04-19 17:40:00,82.8,75.4,29.61,SW,225,0.0,0.0,74,0.00,,,0.00,fowsr,2013-04-19 21:40:00,
2013-04-19 17:45:00,82.9,75.9,29.60,SW,225,0.0,0.0,75,0.00,,,0.00,fowsr,2013-04-19 21:45:00,
2013-04-19 17:50:00,83.1,76.1,29.60,SW,225,0.0,0.0,75,0.00,,,0.00,fowsr,2013-04-19 21:50:00,
2013-04-19 17:55:00,83.3,75.9,29.60,SW,225,0.0,0.0,74,0.00,,,0.00,fowsr,2013-04-19 21:55:00,
2013-04-19 18:00:00,83.3,75.9,29.60,SW,225,0.0,0.0,74,0.00,,,0.00,fowsr,2013-04-19 22:00:00,
2013-04-19 18:05:00,83.3,76.2,29.60,SW,225,0.0,0.0,75,0.00,,,0.00,fowsr,2013-04-19 22:05:00,
2013-04-19 18:10:00,83.3,76.2,29.60,SW,225,0.0,0.0,75,0.00,,,0.00,fowsr,2013-04-19 22:10:00,
2013-04-19 18:15:00,83.3,76.2,29.60,SW,225,0.0,0.0,75,0.00,,,0.00,fowsr,2013-04-19 22:15:00,
2013-04-19 18:20:00,83.5,76.4,29.60,SW,225,0.0,0.0,75,0.00,,,0.00,fowsr,2013-04-19 22:20:00,
2013-04-19 18:25:00,83.3,76.2,29.60,SW,225,0.0,0.0,75,0.00,,,0.00,fowsr,2013-04-19 22:25:00,
2013-04-19 18:30:00,83.3,75.9,29.60,SW,225,0.0,0.0,74,0.00,,,0.00,fowsr,2013-04-19 22:30:00,
2013-04-19 18:35:00,83.3,75.9,29.61,SW,225,0.0,0.0,74,0.00,,,0.00,fowsr,2013-04-19 22:35:00,
2013-04-19 18:40:00,83.1,75.7,29.61,SW,225,0.0,0.0,74,0.00,,,0.00,fowsr,2013-04-19 22:40:00,
2013-04-19 18:45:00,83.3,75.6,29.61,SW,225,0.0,0.0,73,0.00,,,0.00,fowsr,2013-04-19 22:45:00,
2013-04-19 18:50:00,83.3,75.3,29.61,SW,225,0.0,0.0,72,0.00,,,0.00,fowsr,2013-04-19 22:50:00,
2013-04-19 18:55:00,83.3,74.6,29.61,SW,225,0.0,0.0,70,0.00,,,0.00,fowsr,2013-04-19 22:55:00,
2013-04-19 19:00:00,83.5,74.4,29.61,SW,225,0.0,0.0,69,0.00,,,0.00,fowsr,2013-04-19 23:00:00,
2013-04-19 19:05:00,83.7,74.6,29.61,SW,225,0.0,0.0,69,0.00,,,0.00,fowsr,2013-04-19 23:05:00,
2013-04-19 19:10:00,83.7,74.2,29.61,SW,225,0.0,0.0,68,0.00,,,0.00,fowsr,2013-04-19 23:10:00,
2013-04-19 19:15:00,83.8,74.4,29.61,SW,225,0.0,0.0,68,0.00,,,0.00,fowsr,2013-04-19 23:15:00,
2013-04-19 19:20:00,83.8,74.4,29.61,SW,225,0.0,0.0,68,0.00,,,0.00,fowsr,2013-04-19 23:20:00,
2013-04-19 19:25:00,83.8,74.4,29.62,SW,225,0.0,0.0,68,0.00,,,0.00,fowsr,2013-04-19 23:25:00,
2013-04-19 19:30:00,83.7,74.2,29.62,SW,225,0.0,0.0,68,0.00,,,0.00,fowsr,2013-04-19 23:30:00,
2013-04-19 19:35:00,83.7,73.9,29.62,SW,225,0.0,0.0,67,0.00,,,0.00,fowsr,2013-04-19 23:35:00,
2013-04-19 19:40:00,83.5,73.7,29.62,SW,225,0.0,0.0,67,0.00,,,0.00,fowsr,2013-04-19 23:40:00,
2013-04-19 19:45:00,83.3,73.6,29.63,SW,225,0.0,0.0,67,0.00,,,0.00,fowsr,2013-04-19 23:45:00,
2013-04-19 19:50:00,83.1,73.4,29.63,SW,225,0.0,0.0,67,0.00,,,0.00,fowsr,2013-04-19 23:50:00,
2013-04-19 19:55:00,82.8,73.0,29.63,SW,225,0.0,0.0,67,0.00,,,0.00,fowsr,2013-04-19 23:55:00,
2013-04-19 20:00:00,82.4,72.7,29.64,SW,225,0.0,0.0,67,0.00,,,0.00,fowsr,2013-04-20 00:00:00,
2013-04-19 20:05:00,82.0,73.1,29.64,SW,225,0.0,0.0,69,0.00,,,0.00,fowsr,2013-04-20 00:05:00,
2013-04-19 20:10:00,81.9,73.2,29.64,SW,225,0.0,0.0,70,0.00,,,0.00,fowsr,2013-04-20 00:10:00,
2013-04-19 20:15:00,81.5,72.9,29.65,SW,225,0.0,0.0,70,0.00,,,0.00,fowsr,2013-04-20 00:15:00,
2013-04-19 20:20:00,81.1,72.9,29.65,SW,225,0.0,0.0,71,0.00,,,0.00,fowsr,2013-04-20 00:20:00,
2013-04-19 20:25:00,81.0,72.7,29.65,SW,225,0.0,0.0,71,0.00,,,0.00,fowsr,2013-04-20 00:25:00,
2013-04-19 20:30:00,80.8,72.9,29.65,SW,225,0.0,0.0,72,0.00,,,0.00,fowsr,2013-04-20 00:30:00,
2013-04-19 20:35:00,80.6,72.7,29.65,SW,225,0.0,0.0,72,0.00,,,0.00,fowsr,2013-04-20 00:35:00,
2013-04-19 20:40:00,80.4,73.2,29.66,SW,225,0.0,0.0,74,0.00,,,0.00,fowsr,2013-04-20 00:40:00,
2013-04-19 20:45:00,80.1,72.8,29.66,SW,225,0.0,0.0,74,0.00,,,0.00,fowsr,2013-04-20 00:45:00,
2013-04-19 20:50:00,80.1,73.1,29.66,SW,225,0.0,0.0,75,0.00,,,0.00,fowsr,2013-04-20 00:50:00,
2013-04-19 20:55:00,79.9,73.0,29.67,SW,225,0.0,0.0,75,0.00,,,0.00,fowsr,2013-04-20 00:55:00,
2013-04-19 21:00:00,79.7,73.1,29.66,SW,225,0.0,0.0,76,0.00,,,0.00,fowsr,2013-04-20 01:00:00,
2013-04-19 21:05:00,79.3,72.8,29.67,SW,225,0.0,0.7,76,0.00,,,0.00,fowsr,2013-04-20 01:05:00,
2013-04-19 21:10:00,79.2,72.6,29.67,SW,225,0.0,0.0,76,0.00,,,0.00,fowsr,2013-04-20 01:10:00,
2013-04-19 21:15:00,78.8,72.2,29.67,SW,225,0.0,0.0,76,0.00,,,0.00,fowsr,2013-04-20 01:15:00,
2013-04-19 21:20:00,78.6,72.7,29.68,SW,225,0.0,0.0,78,0.00,,,0.00,fowsr,2013-04-20 01:20:00,
2013-04-19 21:25:00,78.4,72.5,29.68,SW,225,0.0,0.0,78,0.00,,,0.00,fowsr,2013-04-20 01:25:00,
2013-04-19 21:30:00,78.3,72.3,29.68,SW,225,0.0,0.0,78,0.00,,,0.00,fowsr,2013-04-20 01:30:00,
2013-04-19 21:35:00,78.1,72.2,29.69,SW,225,0.0,0.0,78,0.00,,,0.00,fowsr,2013-04-20 01:35:00,
2013-04-19 21:40:00,77.9,72.0,29.69,SW,225,0.0,0.0,78,0.00,,,0.00,fowsr,2013-04-20 01:40:00,
2013-04-19 21:45:00,77.7,71.8,29.69,SW,225,0.0,0.0,78,0.00,,,0.00,fowsr,2013-04-20 01:45:00,
2013-04-19 21:50:00,77.7,71.8,29.69,SW,225,0.0,0.0,78,0.00,,,0.00,fowsr,2013-04-20 01:50:00,
2013-04-19 21:55:00,77.5,71.9,29.70,SW,225,0.0,0.0,79,0.00,,,0.00,fowsr,2013-04-20 01:55:00,
2013-04-19 22:00:00,77.5,71.9,29.70,SW,225,0.0,0.0,79,0.00,,,0.00,fowsr,2013-04-20 02:00:00,
2013-04-19 22:05:00,77.4,71.8,29.70,SW,225,0.0,0.0,79,0.00,,,0.00,fowsr,2013-04-20 02:05:00,
2013-04-19 22:10:00,77.2,71.6,29.70,SW,225,0.0,0.0,79,0.00,,,0.00,fowsr,2013-04-20 02:10:00,
2013-04-19 22:15:00,77.0,71.4,29.70,SW,225,0.0,0.0,79,0.00,,,0.00,fowsr,2013-04-20 02:15:00,
2013-04-19 22:20:00,77.0,71.7,29.70,SW,225,0.0,0.0,80,0.00,,,0.00,fowsr,2013-04-20 02:20:00,
2013-04-19 22:25:00,76.8,71.8,29.70,SW,225,0.0,0.0,81,0.00,,,0.00,fowsr,2013-04-20 02:25:00,
2013-04-19 22:30:00,76.8,71.8,29.70,SW,225,0.0,0.0,81,0.00,,,0.00,fowsr,2013-04-20 02:30:00,
2013-04-19 22:35:00,76.6,71.6,29.70,SW,225,0.0,0.0,81,0.00,,,0.00,fowsr,2013-04-20 02:35:00,
2013-04-19 22:40:00,76.5,71.5,29.70,SW,225,0.0,0.0,81,0.00,,,0.00,fowsr,2013-04-20 02:40:00,
2013-04-19 22:45:00,76.3,71.6,29.70,SW,225,0.0,0.0,82,0.00,,,0.00,fowsr,2013-04-20 02:45:00,
2013-04-19 22:50:00,76.3,71.6,29.70,SW,225,0.0,0.0,82,0.00,,,0.00,fowsr,2013-04-20 02:50:00,
2013-04-19 22:55:00,76.1,71.4,29.70,SW,225,0.0,0.0,82,0.00,,,0.00,fowsr,2013-04-20 02:55:00,
2013-04-19 23:00:00,76.1,71.4,29.70,SW,225,0.0,0.0,82,0.00,,,0.00,fowsr,2013-04-20 03:00:00,
2013-04-19 23:05:00,76.1,71.4,29.70,SW,225,0.0,0.0,82,0.00,,,0.00,fowsr,2013-04-20 03:05:00,
2013-04-19 23:10:00,75.9,71.2,29.70,SW,225,0.0,0.0,82,0.00,,,0.00,fowsr,2013-04-20 03:10:00,
2013-04-19 23:15:00,75.9,71.2,29.70,SW,225,0.0,0.0,82,0.00,,,0.00,fowsr,2013-04-20 03:15:00,
2013-04-19 23:20:00,75.9,71.2,29.70,SW,225,0.0,0.0,82,0.00,,,0.00,fowsr,2013-04-20 03:20:00,
2013-04-19 23:25:00,75.7,71.1,29.70,SW,225,0.0,0.0,82,0.00,,,0.00,fowsr,2013-04-20 03:25:00,
2013-04-19 23:30:00,75.7,71.1,29.70,SW,225,0.0,0.0,82,0.00,,,0.00,fowsr,2013-04-20 03:30:00,
2013-04-19 23:35:00,75.7,71.1,29.71,SW,225,0.0,0.0,82,0.00,,,0.00,fowsr,2013-04-20 03:35:00,
2013-04-19 23:40:00,75.7,71.1,29.70,SW,225,0.0,0.0,82,0.00,,,0.00,fowsr,2013-04-20 03:40:00,
2013-04-19 23:45:00,75.7,71.1,29.70,SW,225,0.0,0.0,82,0.00,,,0.00,fowsr,2013-04-20 03:45:00,
2013-04-19 23:50:00,75.7,71.1,29.70,SW,225,0.0,0.0,82,0.00,,,0.00,fowsr,2013-04-20 03:50:00,
2013-04-19 23:55:00,75.7,71.1,29.70,SW,225,0.0,0.0,82,0.00,,,0.00,fowsr,2013-04-20 03:55:00,